Kewa, Washington
Current Conditions -  °F | °C
As of 3:53 PM on Thursday 27 Nov 2014 (Local Time) from KOMK Reporting Station
Clear Clear  
Wind Chill: 39°   Ceiling: Unl
Heat Index: 45°   Visibility: 10mi
Dew Point: 38°   Wind: 12mph
Humidity: 76%   Direction: 200°SSW
Pressure: 29.7"   Gusts: NA
Location:  48.2853°N, 118.523°W
Report Text: KOMK 272353Z AUTO 20010KT 10SM CLR 07/03 A2970 RMK AO2 SLP065 T00720033 10089 20028 56016
Loading
Personal Weather Stations






























Interactive Weather Map New forecast layout! Learn more

10-Day Weather Forecast

Advertisements
Track Severe Weather on mobile